Time;durP1;ratioP1;P1;durP2;ratioP2;P2;SDS_P1;SDS_P2;PMS_P1;PMS_P2;Temp;Humidity;BMP_temperature;BMP_pressure;BME280_temperature;BME280_humidity;BME280_pressure;Samples;Min_cycle;Max_cycle;Signal;HPM_P1;HPM_P2
2023/05/18 00:01:06;;;;;;;1.67;0.10;;;20.30;66.20;;;;;;5077192;28;20041;-73
2023/05/18 00:03:34;;;;;;;1.42;0.32;;;20.30;66.20;;;;;;5087491;28;20391;-73
2023/05/18 00:06:03;;;;;;;2.03;0.32;;;20.30;66.20;;;;;;5084518;28;20056;-72
2023/05/18 00:08:30;;;;;;;0.90;0.10;;;20.30;66.20;;;;;;5079146;28;20039;-72
2023/05/18 00:10:57;;;;;;;0.98;0.22;;;20.30;66.20;;;;;;5073722;28;20465;-72
2023/05/18 00:13:24;;;;;;;1.13;0.25;;;20.30;66.20;;;;;;5084062;28;20436;-72
2023/05/18 00:15:51;;;;;;;1.90;0.15;;;20.30;66.20;;;;;;5082917;28;20146;-71
2023/05/18 00:18:22;;;;;;;1.92;0.50;;;20.30;66.10;;;;;;5088195;28;20071;-72
2023/05/18 00:20:57;;;;;;;1.15;0.20;;;20.30;66.20;;;;;;5080801;28;20052;-72
2023/05/18 00:23:28;;;;;;;0.82;0.20;;;20.20;66.10;;;;;;5079238;28;20044;-73
2023/05/18 00:25:57;;;;;;;1.25;0.30;;;20.30;66.10;;;;;;5083743;28;20102;-72
2023/05/18 00:28:24;;;;;;;0.90;0.10;;;20.30;66.10;;;;;;5079804;28;20092;-73
2023/05/18 00:30:51;;;;;;;0.80;0.22;;;20.20;66.10;;;;;;5085280;28;20110;-72
2023/05/18 00:33:18;;;;;;;0.88;0.35;;;20.20;66.00;;;;;;5085582;28;20105;-72
2023/05/18 00:35:45;;;;;;;0.90;0.20;;;20.20;66.00;;;;;;5086028;28;20048;-72
2023/05/18 00:38:15;;;;;;;1.10;0.32;;;20.20;66.00;;;;;;5084430;28;20378;-72
2023/05/18 00:40:42;;;;;;;1.52;0.40;;;20.20;66.00;;;;;;5079833;28;20496;-72
2023/05/18 00:43:09;;;;;;;1.63;0.28;;;20.20;66.10;;;;;;5090195;28;20071;-72
2023/05/18 00:45:36;;;;;;;2.50;0.35;;;20.20;66.00;;;;;;5088202;28;20412;-72
2023/05/18 00:48:03;;;;;;;1.17;0.15;;;20.20;66.00;;;;;;5085947;28;20051;-72
2023/05/18 00:50:30;;;;;;;1.25;0.20;;;20.20;66.00;;;;;;5075318;28;20048;-72
2023/05/18 00:52:57;;;;;;;0.95;0.30;;;20.20;66.00;;;;;;5091013;28;20068;-72
2023/05/18 00:55:27;;;;;;;1.55;0.20;;;20.20;66.00;;;;;;5083110;28;20123;-72
2023/05/18 00:57:55;;;;;;;0.77;0.17;;;20.20;66.00;;;;;;5077747;28;20186;-72
2023/05/18 01:00:22;;;;;;;0.60;0.10;;;20.20;66.00;;;;;;5080279;28;20148;-73
2023/05/18 01:02:49;;;;;;;0.88;0.20;;;20.20;66.00;;;;;;5087196;28;20127;-73
2023/05/18 01:05:18;;;;;;;1.10;0.20;;;20.20;66.00;;;;;;5083632;28;20585;-72
2023/05/18 01:07:46;;;;;;;2.35;0.32;;;20.20;66.00;;;;;;5088638;28;20051;-72
2023/05/18 01:10:15;;;;;;;1.50;0.63;;;20.20;66.00;;;;;;5089667;28;20298;-73
2023/05/18 01:12:50;;;;;;;1.02;0.32;;;20.20;66.00;;;;;;5086576;28;20044;-73
2023/05/18 01:15:20;;;;;;;1.15;0.65;;;20.20;65.90;;;;;;5084890;28;20040;-72
2023/05/18 01:18:03;;;;;;;0.57;0.10;;;20.10;65.80;;;;;;5088501;28;20059;-72
2023/05/18 01:20:36;;;;;;;2.70;0.15;;;20.20;65.80;;;;;;5085385;28;20051;-71
2023/05/18 01:23:29;;;;;;;2.08;0.60;;;20.10;65.80;;;;;;5081107;28;20496;-72
2023/05/18 01:26:23;;;;;;;1.63;0.40;;;20.10;65.80;;;;;;5086313;28;20493;-73
2023/05/18 01:28:51;;;;;;;0.98;0.20;;;20.10;65.80;;;;;;5089724;28;20055;-72
2023/05/18 01:31:18;;;;;;;0.98;0.52;;;20.10;65.80;;;;;;5084179;28;20403;-73
2023/05/18 01:33:46;;;;;;;1.70;0.38;;;20.10;65.80;;;;;;5087511;28;20059;-73
2023/05/18 01:36:13;;;;;;;0.90;0.70;;;20.10;65.80;;;;;;5086228;28;20047;-72
2023/05/18 01:38:40;;;;;;;1.08;0.20;;;20.10;65.80;;;;;;5079889;28;20572;-73
2023/05/18 01:41:13;;;;;;;1.35;0.10;;;20.10;65.80;;;;;;5088489;28;20055;-72
2023/05/18 01:43:47;;;;;;;1.20;0.50;;;20.10;65.80;;;;;;5085720;28;20462;-72
2023/05/18 01:46:32;;;;;;;0.60;0.10;;;20.10;65.80;;;;;;5090126;28;20073;-73
2023/05/18 01:49:03;;;;;;;0.98;0.47;;;20.10;65.80;;;;;;5084986;28;20040;-72
2023/05/18 01:51:34;;;;;;;1.70;0.43;;;20.10;65.70;;;;;;5086465;28;20056;-72
2023/05/18 01:54:05;;;;;;;1.00;0.50;;;20.10;65.70;;;;;;5084650;28;20052;-72
2023/05/18 01:56:33;;;;;;;1.20;0.93;;;20.10;65.70;;;;;;5077635;28;20048;-72
2023/05/18 01:59:03;;;;;;;1.35;0.40;;;20.10;65.70;;;;;;5085003;28;20058;-72
2023/05/18 02:01:30;;;;;;;1.90;0.63;;;20.10;65.70;;;;;;5085794;28;20121;-72
2023/05/18 02:03:57;;;;;;;0.90;0.20;;;20.00;65.70;;;;;;5086368;28;20087;-72
2023/05/18 02:06:24;;;;;;;1.98;0.50;;;20.00;65.70;;;;;;5088412;28;20044;-73
2023/05/18 02:08:51;;;;;;;1.20;0.68;;;20.10;65.70;;;;;;5088150;28;20060;-72
2023/05/18 02:11:18;;;;;;;2.30;0.38;;;20.10;65.70;;;;;;5089258;28;20052;-72
2023/05/18 02:13:45;;;;;;;1.25;0.50;;;20.10;65.70;;;;;;5083455;28;20079;-72
2023/05/18 02:16:14;;;;;;;1.08;0.40;;;20.00;65.60;;;;;;5089436;28;20082;-72
2023/05/18 02:18:41;;;;;;;1.23;0.47;;;20.00;65.70;;;;;;5088904;28;20044;-72
2023/05/18 02:21:09;;;;;;;0.80;0.10;;;20.00;65.60;;;;;;5086610;28;20048;-72
2023/05/18 02:23:36;;;;;;;1.55;0.88;;;20.00;65.60;;;;;;5088156;28;20097;-72
2023/05/18 02:26:03;;;;;;;1.23;0.30;;;20.00;65.60;;;;;;5084388;28;20056;-72
2023/05/18 02:28:30;;;;;;;1.45;0.20;;;20.00;65.60;;;;;;5089974;28;20059;-72
2023/05/18 02:31:05;;;;;;;1.00;0.10;;;20.00;65.50;;;;;;5085861;28;20048;-72
2023/05/18 02:33:38;;;;;;;1.65;0.65;;;20.00;65.50;;;;;;5088273;28;20056;-72
2023/05/18 02:36:07;;;;;;;1.25;0.30;;;20.00;65.60;;;;;;5088272;28;20488;-72
2023/05/18 02:38:37;;;;;;;0.73;0.10;;;20.00;65.50;;;;;;5087594;28;20062;-72
2023/05/18 02:41:04;;;;;;;0.95;0.50;;;20.00;65.50;;;;;;5086465;28;20048;-72
2023/05/18 02:43:31;;;;;;;0.70;0.15;;;20.00;65.50;;;;;;5085562;28;20055;-72
2023/05/18 02:45:58;;;;;;;0.90;0.43;;;20.00;65.60;;;;;;5088621;28;20056;-73
2023/05/18 02:48:25;;;;;;;1.05;0.40;;;20.00;65.50;;;;;;5086408;28;20051;-72
2023/05/18 02:50:53;;;;;;;0.68;0.20;;;20.00;65.50;;;;;;5086890;28;20048;-72
2023/05/18 02:53:20;;;;;;;1.58;0.10;;;20.00;65.50;;;;;;5084445;28;20051;-72
2023/05/18 02:55:48;;;;;;;0.85;0.17;;;20.00;65.50;;;;;;5086031;28;23445;-72
2023/05/18 02:58:15;;;;;;;0.95;0.30;;;20.00;65.50;;;;;;5088314;28;20052;-72
2023/05/18 03:00:42;;;;;;;1.30;0.60;;;20.00;65.50;;;;;;5087591;28;20048;-72
2023/05/18 03:03:14;;;;;;;1.15;0.43;;;20.00;65.50;;;;;;5084088;28;20066;-73
2023/05/18 03:05:42;;;;;;;0.70;0.40;;;20.00;65.50;;;;;;5082488;28;20058;-72
2023/05/18 03:08:10;;;;;;;0.85;0.10;;;20.00;65.40;;;;;;5082884;28;20059;-72
2023/05/18 03:10:37;;;;;;;1.48;0.20;;;19.90;65.40;;;;;;5086983;28;20054;-72
2023/05/18 03:13:05;;;;;;;1.20;0.77;;;20.00;65.40;;;;;;5085845;28;20060;-72
2023/05/18 03:15:32;;;;;;;1.25;0.40;;;20.00;65.40;;;;;;5084427;28;20404;-72
2023/05/18 03:17:59;;;;;;;1.35;0.55;;;20.00;65.40;;;;;;5084840;28;20412;-72
2023/05/18 03:20:26;;;;;;;0.93;0.40;;;20.00;65.40;;;;;;5080960;28;20089;-72
2023/05/18 03:22:53;;;;;;;1.23;0.35;;;19.90;65.40;;;;;;5081346;28;20128;-73
2023/05/18 03:25:24;;;;;;;1.95;0.50;;;19.90;65.40;;;;;;5078306;28;20048;-72
2023/05/18 03:27:51;;;;;;;1.65;0.50;;;20.00;65.40;;;;;;5079181;28;20068;-72
2023/05/18 03:30:18;;;;;;;1.10;0.32;;;19.90;65.30;;;;;;5080807;28;20098;-72
2023/05/18 03:32:47;;;;;;;1.65;0.60;;;19.90;65.30;;;;;;5083275;28;20052;-72
2023/05/18 03:35:14;;;;;;;1.52;0.43;;;19.90;65.90;;;;;;5077872;28;20052;-72
2023/05/18 03:37:41;;;;;;;1.00;0.40;;;19.90;65.30;;;;;;5078391;28;20044;-72
2023/05/18 03:40:10;;;;;;;1.00;0.60;;;19.90;65.30;;;;;;5083988;28;20060;-72
2023/05/18 03:42:39;;;;;;;0.90;0.20;;;19.90;65.30;;;;;;5084800;28;20045;-72
2023/05/18 03:45:08;;;;;;;1.50;0.17;;;19.90;65.40;;;;;;5077829;28;20147;-73
2023/05/18 03:47:35;;;;;;;1.95;0.38;;;19.90;65.30;;;;;;5076636;28;20048;-72
2023/05/18 03:50:02;;;;;;;1.08;0.43;;;19.90;65.30;;;;;;5084429;28;20044;-72
2023/05/18 03:52:29;;;;;;;1.00;0.32;;;19.90;65.30;;;;;;5086439;28;20081;-72
2023/05/18 03:54:56;;;;;;;1.05;0.45;;;19.90;65.30;;;;;;5078046;28;20528;-72
2023/05/18 03:57:24;;;;;;;0.90;0.38;;;19.90;65.30;;;;;;5084966;28;20044;-72
2023/05/18 03:59:52;;;;;;;1.67;0.52;;;19.90;65.30;;;;;;5081257;28;20508;-72
2023/05/18 04:02:19;;;;;;;1.73;0.45;;;19.90;65.30;;;;;;5086393;28;20051;-73
2023/05/18 04:04:46;;;;;;;0.85;0.15;;;19.90;65.30;;;;;;5080746;28;20053;-72
2023/05/18 04:07:15;;;;;;;0.90;0.50;;;19.90;65.20;;;;;;5084651;28;20055;-72
2023/05/18 04:09:42;;;;;;;1.13;0.35;;;19.90;65.20;;;;;;5082435;28;20060;-72
2023/05/18 04:12:09;;;;;;;1.05;0.10;;;19.90;65.80;;;;;;5080373;28;20059;-72
2023/05/18 04:14:36;;;;;;;0.85;0.13;;;19.90;65.20;;;;;;5076190;28;20133;-72
2023/05/18 04:17:05;;;;;;;0.93;0.40;;;19.90;65.20;;;;;;5083297;28;20381;-72
2023/05/18 04:19:33;;;;;;;1.52;0.17;;;19.90;65.20;;;;;;5082334;28;20087;-72
2023/05/18 04:22:03;;;;;;;0.77;0.10;;;19.90;65.30;;;;;;5081904;28;20044;-72
2023/05/18 04:24:31;;;;;;;0.60;0.10;;;19.90;65.20;;;;;;5087222;28;20084;-72
2023/05/18 04:26:59;;;;;;;2.22;0.47;;;19.90;65.20;;;;;;5085185;28;20405;-72
2023/05/18 04:29:26;;;;;;;1.27;0.13;;;19.90;65.20;;;;;;5078722;28;20465;-71
2023/05/18 04:31:59;;;;;;;1.38;0.65;;;19.90;65.20;;;;;;5085173;28;20048;-72
2023/05/18 04:34:28;;;;;;;1.20;0.55;;;19.90;65.20;;;;;;5077993;28;20060;-73
2023/05/18 04:36:57;;;;;;;1.33;0.45;;;19.90;65.20;;;;;;5087206;28;20052;-71
2023/05/18 04:39:24;;;;;;;0.90;0.50;;;19.90;65.20;;;;;;5086896;28;20144;-72
2023/05/18 04:41:57;;;;;;;1.15;0.50;;;19.80;65.10;;;;;;5086392;28;20132;-72
2023/05/18 04:44:24;;;;;;;2.08;0.40;;;19.90;65.20;;;;;;5082251;28;20048;-72
2023/05/18 04:46:52;;;;;;;1.00;0.15;;;19.80;65.10;;;;;;5082815;28;20079;-72
2023/05/18 04:49:20;;;;;;;1.20;0.73;;;19.90;65.10;;;;;;5086041;28;20890;-72
2023/05/18 04:51:54;;;;;;;1.52;0.70;;;19.80;65.10;;;;;;5080389;28;20101;-73
2023/05/18 04:54:22;;;;;;;1.05;0.20;;;19.80;65.00;;;;;;5077240;28;20044;-73
2023/05/18 04:56:49;;;;;;;2.72;0.45;;;19.80;65.10;;;;;;5086677;28;20054;-73
2023/05/18 04:59:16;;;;;;;0.70;0.10;;;19.80;65.00;;;;;;5086718;28;20770;-73
2023/05/18 05:01:44;;;;;;;1.10;0.68;;;19.80;65.00;;;;;;5075764;28;20394;-73
2023/05/18 05:04:12;;;;;;;1.10;0.35;;;19.90;65.10;;;;;;5080240;28;20043;-72
2023/05/18 05:06:39;;;;;;;1.50;0.60;;;19.90;65.10;;;;;;5082901;28;20059;-72
2023/05/18 05:09:07;;;;;;;0.98;0.47;;;19.80;65.10;;;;;;5085911;28;20056;-72
2023/05/18 05:11:34;;;;;;;1.10;0.50;;;19.80;65.00;;;;;;5085190;28;20044;-72
2023/05/18 05:14:02;;;;;;;1.85;0.57;;;19.90;65.10;;;;;;5080989;28;20721;-72
2023/05/18 05:16:29;;;;;;;1.75;0.52;;;19.80;65.00;;;;;;5082326;28;20048;-72
2023/05/18 05:18:56;;;;;;;1.10;0.50;;;19.90;65.10;;;;;;5084772;28;20059;-72
2023/05/18 05:21:23;;;;;;;1.25;0.55;;;19.90;65.10;;;;;;5083114;28;20060;-72
2023/05/18 05:23:50;;;;;;;1.20;0.68;;;19.90;65.60;;;;;;5079325;28;20040;-72
2023/05/18 05:26:18;;;;;;;1.38;0.30;;;19.90;65.10;;;;;;5087660;28;20056;-71
2023/05/18 05:28:45;;;;;;;3.60;0.10;;;19.90;65.10;;;;;;5080573;28;20055;-72
2023/05/18 05:31:13;;;;;;;2.42;0.20;;;19.80;65.20;;;;;;5085545;28;20045;-72
2023/05/18 05:33:40;;;;;;;1.48;0.10;;;19.80;65.10;;;;;;5090302;28;20048;-72
2023/05/18 05:36:08;;;;;;;2.63;0.32;;;19.90;65.30;;;;;;5084666;28;20060;-73
2023/05/18 05:38:35;;;;;;;1.30;0.17;;;19.90;65.30;;;;;;5083248;28;20493;-73
2023/05/18 05:41:02;;;;;;;4.22;0.50;;;19.90;65.40;;;;;;5083342;28;20059;-73
2023/05/18 05:43:30;;;;;;;5.47;0.90;;;19.80;65.50;;;;;;5085807;28;20735;-73
2023/05/18 05:45:57;;;;;;;2.30;0.40;;;19.90;65.70;;;;;;5083989;28;20942;-73
2023/05/18 05:48:24;;;;;;;2.13;0.52;;;19.90;65.80;;;;;;5078975;28;20048;-70
2023/05/18 05:50:51;;;;;;;2.10;0.45;;;19.90;65.80;;;;;;5085469;28;20066;-70
2023/05/18 05:53:19;;;;;;;3.45;0.57;;;19.90;65.90;;;;;;5081137;28;20048;-73
2023/05/18 05:55:46;;;;;;;4.45;0.68;;;19.80;65.90;;;;;;5086669;28;20128;-74
2023/05/18 05:58:13;;;;;;;2.10;0.80;;;19.90;65.90;;;;;;5083901;28;20044;-69
2023/05/18 06:00:42;;;;;;;4.50;0.57;;;19.90;66.00;;;;;;5087691;28;20579;-70
2023/05/18 06:03:09;;;;;;;4.03;0.40;;;19.90;66.00;;;;;;5082047;28;20052;-70
2023/05/18 06:05:36;;;;;;;4.72;0.50;;;19.90;66.00;;;;;;5080559;28;20204;-70
2023/05/18 06:08:03;;;;;;;1.52;0.55;;;19.90;66.10;;;;;;5081864;28;20066;-70
2023/05/18 06:10:31;;;;;;;4.32;0.50;;;19.90;66.10;;;;;;5081802;28;20055;-70
2023/05/18 06:12:58;;;;;;;3.38;0.43;;;19.90;66.00;;;;;;5086797;28;20044;-70
2023/05/18 06:15:25;;;;;;;2.92;0.22;;;19.90;66.00;;;;;;5088199;28;20059;-70
2023/05/18 06:17:53;;;;;;;3.42;0.20;;;19.90;66.10;;;;;;5087809;28;20131;-70
2023/05/18 06:20:20;;;;;;;4.88;0.28;;;20.00;66.10;;;;;;5087682;28;20052;-72
2023/05/18 06:22:47;;;;;;;3.30;0.82;;;20.00;66.20;;;;;;5087525;28;20078;-73
2023/05/18 06:25:14;;;;;;;2.58;0.43;;;20.00;66.20;;;;;;5081503;28;20059;-72
2023/05/18 06:27:43;;;;;;;2.72;0.40;;;20.00;66.20;;;;;;5085553;28;20048;-72
2023/05/18 06:30:11;;;;;;;1.92;0.30;;;20.00;66.20;;;;;;5085822;28;20047;-74
2023/05/18 06:32:38;;;;;;;2.88;0.35;;;19.90;66.10;;;;;;5086450;28;20066;-75
2023/05/18 06:35:07;;;;;;;1.98;0.75;;;20.00;66.20;;;;;;5086029;28;20063;-74
2023/05/18 06:37:34;;;;;;;5.00;0.40;;;20.00;66.20;;;;;;5085914;28;20059;-74
2023/05/18 06:40:02;;;;;;;4.40;0.70;;;20.00;66.20;;;;;;5087354;28;20048;-74
2023/05/18 06:42:30;;;;;;;1.73;0.22;;;20.00;66.20;;;;;;5088489;28;20079;-74
2023/05/18 06:44:57;;;;;;;4.95;0.40;;;20.00;66.20;;;;;;5081853;28;20052;-71
2023/05/18 06:47:24;;;;;;;3.65;0.30;;;20.00;66.20;;;;;;5084896;28;20062;-73
2023/05/18 06:49:51;;;;;;;3.38;1.50;;;20.00;66.20;;;;;;5081806;28;20519;-73
2023/05/18 06:52:19;;;;;;;2.38;0.43;;;20.00;66.20;;;;;;5082662;28;20403;-72
2023/05/18 06:54:46;;;;;;;2.55;0.63;;;20.00;66.30;;;;;;5085154;28;20056;-72
2023/05/18 06:57:13;;;;;;;4.28;0.52;;;20.00;66.30;;;;;;5087257;28;20044;-72
2023/05/18 06:59:40;;;;;;;2.53;0.25;;;20.00;66.30;;;;;;5089723;28;20059;-72
2023/05/18 07:02:07;;;;;;;3.80;0.77;;;20.00;66.30;;;;;;5083779;28;20134;-72
2023/05/18 07:04:34;;;;;;;5.07;0.95;;;20.00;66.40;;;;;;5088522;28;20059;-73
2023/05/18 07:07:01;;;;;;;2.75;0.75;;;20.00;66.40;;;;;;5089758;28;20052;-72
2023/05/18 07:09:30;;;;;;;4.20;0.40;;;20.00;66.50;;;;;;5090300;28;20047;-72
2023/05/18 07:11:57;;;;;;;2.17;0.70;;;19.90;66.60;;;;;;5088100;28;20105;-72
2023/05/18 07:14:24;;;;;;;2.22;0.30;;;20.00;66.70;;;;;;5086281;28;20051;-72
2023/05/18 07:16:51;;;;;;;4.13;0.38;;;20.00;66.90;;;;;;5087731;28;20057;-72
2023/05/18 07:19:18;;;;;;;2.17;0.32;;;20.00;66.90;;;;;;5078970;28;20040;-72
2023/05/18 07:21:45;;;;;;;2.33;0.40;;;20.00;67.10;;;;;;5088844;28;20511;-72
2023/05/18 07:24:12;;;;;;;1.95;0.28;;;20.00;67.10;;;;;;5086780;28;20051;-71
2023/05/18 07:26:40;;;;;;;4.10;0.30;;;20.00;67.20;;;;;;5087725;28;20484;-72
2023/05/18 07:29:07;;;;;;;1.85;0.30;;;20.00;67.30;;;;;;5085411;28;20052;-72
2023/05/18 07:31:37;;;;;;;4.68;0.47;;;20.00;67.40;;;;;;5077712;28;20067;-73
2023/05/18 07:34:04;;;;;;;4.53;0.40;;;20.00;67.40;;;;;;5082149;28;20442;-72
2023/05/18 07:36:31;;;;;;;3.08;0.90;;;20.00;67.40;;;;;;5074004;28;20052;-72
2023/05/18 07:39:00;;;;;;;5.10;0.70;;;20.00;67.50;;;;;;5083070;28;20047;-72
2023/05/18 07:41:27;;;;;;;3.00;0.50;;;20.00;67.60;;;;;;5086975;28;20455;-72
2023/05/18 07:43:56;;;;;;;3.90;0.28;;;20.00;67.70;;;;;;5089351;28;20435;-72
2023/05/18 07:46:23;;;;;;;2.45;0.30;;;20.00;67.70;;;;;;5083008;28;20062;-72
2023/05/18 07:48:50;;;;;;;3.00;0.32;;;20.00;67.80;;;;;;5081986;28;20063;-72
2023/05/18 07:51:17;;;;;;;3.00;0.40;;;20.00;67.90;;;;;;5088145;28;20062;-71
2023/05/18 07:53:44;;;;;;;3.08;0.30;;;20.00;68.00;;;;;;5085152;28;20059;-72
2023/05/18 07:56:12;;;;;;;3.63;0.30;;;20.00;68.00;;;;;;5085116;28;20063;-72
2023/05/18 07:58:40;;;;;;;4.57;0.60;;;20.00;68.10;;;;;;5084439;28;20409;-73
2023/05/18 08:01:08;;;;;;;2.38;0.30;;;20.00;68.10;;;;;;5079228;28;20056;-72
2023/05/18 08:03:35;;;;;;;1.95;0.43;;;20.00;68.20;;;;;;5087542;28;20465;-72
2023/05/18 08:06:02;;;;;;;1.92;0.20;;;20.00;68.20;;;;;;5089415;28;20067;-72
2023/05/18 08:08:29;;;;;;;3.38;0.32;;;20.00;68.20;;;;;;5088065;28;20045;-73
2023/05/18 08:10:57;;;;;;;3.80;0.47;;;20.10;68.30;;;;;;5080448;28;20044;-72
2023/05/18 08:13:24;;;;;;;2.25;0.90;;;20.10;68.40;;;;;;5088798;28;20051;-71
2023/05/18 08:15:51;;;;;;;2.17;0.73;;;20.00;68.40;;;;;;5088160;28;20051;-73
2023/05/18 08:18:21;;;;;;;2.33;0.50;;;20.00;68.40;;;;;;5088856;28;20040;-72
2023/05/18 08:20:48;;;;;;;2.50;0.60;;;20.10;68.50;;;;;;5084551;28;20048;-72
2023/05/18 08:23:15;;;;;;;1.80;0.20;;;20.10;68.50;;;;;;5082705;28;20052;-72
2023/05/18 08:25:42;;;;;;;4.30;0.70;;;20.10;68.50;;;;;;5079355;28;20412;-72
2023/05/18 08:28:09;;;;;;;2.97;0.65;;;20.10;68.50;;;;;;5082354;28;20044;-72
2023/05/18 08:30:36;;;;;;;2.60;0.85;;;20.10;68.50;;;;;;5087904;28;20050;-73
2023/05/18 08:33:03;;;;;;;3.40;0.88;;;20.10;68.50;;;;;;5086472;28;20052;-73
2023/05/18 08:35:32;;;;;;;2.15;0.73;;;20.10;68.60;;;;;;5086855;28;20056;-72
2023/05/18 08:37:59;;;;;;;2.28;1.02;;;20.10;68.60;;;;;;5083883;28;20040;-72
2023/05/18 08:40:36;;;;;;;2.25;0.80;;;20.20;68.60;;;;;;5081792;28;20048;-73
2023/05/18 08:43:08;;;;;;;3.47;0.93;;;20.20;68.80;;;;;;5081091;28;20041;-73
2023/05/18 08:45:40;;;;;;;1.52;0.73;;;20.10;68.70;;;;;;5082133;28;20058;-72
2023/05/18 08:48:09;;;;;;;1.70;0.32;;;20.20;68.70;;;;;;5077466;28;20497;-73
2023/05/18 08:50:38;;;;;;;;;;;20.20;68.70;;;;;;5088088;28;20074;-72
2023/05/18 08:53:06;;;;;;;1.33;0.38;;;20.20;68.90;;;;;;5085665;28;19924;-72
2023/05/18 08:55:35;;;;;;;1.92;0.60;;;20.20;68.60;;;;;;5086143;28;20052;-72
2023/05/18 08:58:03;;;;;;;1.88;0.70;;;20.20;68.70;;;;;;5088588;28;20060;-73
2023/05/18 09:00:32;;;;;;;2.15;0.75;;;20.20;68.70;;;;;;5088569;28;20134;-73
2023/05/18 09:02:59;;;;;;;2.13;0.70;;;20.20;68.70;;;;;;5086028;28;20047;-73
2023/05/18 09:05:26;;;;;;;3.47;0.85;;;20.20;68.80;;;;;;5089175;28;20524;-72
2023/05/18 09:07:56;;;;;;;3.15;0.80;;;20.20;68.80;;;;;;5091846;28;20066;-72
2023/05/18 09:10:24;;;;;;;3.30;0.60;;;20.20;68.80;;;;;;5089910;28;20052;-72
2023/05/18 09:12:52;;;;;;;2.28;0.75;;;20.20;68.80;;;;;;5089766;28;20059;-73
2023/05/18 09:15:19;;;;;;;2.97;0.88;;;20.20;68.80;;;;;;5092653;28;20075;-73
2023/05/18 09:17:46;;;;;;;3.10;0.65;;;20.20;68.70;;;;;;5084604;28;20053;-72
2023/05/18 09:20:13;;;;;;;3.50;1.05;;;20.20;68.70;;;;;;5086778;28;20056;-73
2023/05/18 09:22:40;;;;;;;1.35;0.20;;;20.20;68.80;;;;;;5088218;28;20053;-73
2023/05/18 09:25:10;;;;;;;3.22;0.30;;;20.20;68.80;;;;;;5083700;28;20044;-73
2023/05/18 09:27:38;;;;;;;1.92;0.22;;;20.20;68.80;;;;;;5080747;28;20060;-72
2023/05/18 09:30:09;;;;;;;1.70;0.17;;;20.20;68.70;;;;;;5086151;28;20075;-73
2023/05/18 09:32:37;;;;;;;2.85;0.70;;;20.20;68.80;;;;;;5085351;28;20079;-72
2023/05/18 09:35:05;;;;;;;2.22;0.70;;;20.20;68.70;;;;;;5087948;28;20056;-72
2023/05/18 09:37:33;;;;;;;2.85;0.73;;;20.20;68.70;;;;;;5091875;28;20055;-72
2023/05/18 09:40:03;;;;;;;3.65;0.20;;;20.20;68.70;;;;;;5090781;28;20131;-72
2023/05/18 09:42:38;;;;;;;1.48;0.60;;;20.30;68.70;;;;;;5090968;28;20083;-72
2023/05/18 09:45:16;;;;;;;2.03;0.80;;;20.30;68.60;;;;;;5089991;28;20405;-72
2023/05/18 09:47:43;;;;;;;1.52;0.45;;;20.20;68.50;;;;;;5088240;28;20044;-72
2023/05/18 09:50:10;;;;;;;2.20;0.60;;;20.30;68.60;;;;;;5086964;28;20048;-72
2023/05/18 09:52:42;;;;;;;1.83;0.35;;;20.30;68.60;;;;;;5083217;28;20121;-72
2023/05/18 09:55:09;;;;;;;1.90;0.22;;;20.30;68.60;;;;;;5090146;28;20393;-73
2023/05/18 09:57:41;;;;;;;1.30;0.50;;;20.30;68.60;;;;;;5082004;28;20091;-72
2023/05/18 10:00:11;;;;;;;2.50;0.65;;;20.30;68.60;;;;;;5091597;28;20048;-73
2023/05/18 10:02:40;;;;;;;2.78;0.70;;;20.30;68.60;;;;;;5081528;28;20056;-72
2023/05/18 10:05:18;;;;;;;1.33;0.20;;;20.30;68.50;;;;;;5088054;28;20051;-72
2023/05/18 10:07:45;;;;;;;1.95;0.65;;;20.30;68.60;;;;;;5087395;28;20040;-72
2023/05/18 10:10:12;;;;;;;2.88;0.68;;;20.30;68.40;;;;;;5088556;28;20044;-72
2023/05/18 10:12:41;;;;;;;1.13;0.20;;;20.30;68.40;;;;;;5087933;28;20048;-73
2023/05/18 10:15:10;;;;;;;2.20;0.82;;;20.30;68.40;;;;;;5088270;28;20039;-72
2023/05/18 10:17:38;;;;;;;1.77;0.20;;;20.40;68.40;;;;;;5091223;28;20518;-73
2023/05/18 10:20:09;;;;;;;1.25;0.13;;;20.40;68.30;;;;;;5090538;28;20036;-72
2023/05/18 10:22:37;;;;;;;1.70;0.10;;;20.40;68.30;;;;;;5086750;28;20071;-73
2023/05/18 10:25:06;;;;;;;1.10;0.50;;;20.40;68.20;;;;;;5087336;28;20044;-73
2023/05/18 10:27:35;;;;;;;1.63;0.60;;;20.40;68.20;;;;;;5081446;28;20056;-72
2023/05/18 10:30:07;;;;;;;1.90;0.70;;;20.40;68.20;;;;;;5085335;28;20044;-72
2023/05/18 10:32:36;;;;;;;1.10;0.52;;;20.40;68.20;;;;;;5086721;28;20059;-72
2023/05/18 10:35:05;;;;;;;1.35;0.50;;;20.40;68.10;;;;;;5088211;28;20059;-72
2023/05/18 10:37:36;;;;;;;1.30;0.63;;;20.40;68.20;;;;;;5087591;28;20052;-72
2023/05/18 10:40:05;;;;;;;1.05;0.40;;;20.40;68.20;;;;;;5083829;28;20071;-73
2023/05/18 10:42:33;;;;;;;1.80;0.55;;;20.40;68.10;;;;;;5087475;28;20151;-72
2023/05/18 10:45:01;;;;;;;3.33;0.52;;;20.50;68.10;;;;;;5083518;28;20408;-73
2023/05/18 10:47:30;;;;;;;1.90;0.70;;;20.50;68.10;;;;;;5089823;28;20055;-72
2023/05/18 10:49:59;;;;;;;2.42;0.50;;;20.50;68.00;;;;;;5090310;28;20059;-72
2023/05/18 10:52:30;;;;;;;1.90;0.80;;;20.60;68.10;;;;;;5087618;28;20093;-73
2023/05/18 10:54:59;;;;;;;1.35;0.20;;;20.60;68.10;;;;;;5086685;28;20074;-73
2023/05/18 10:57:30;;;;;;;1.88;0.50;;;20.60;68.00;;;;;;5090305;28;20058;-72
2023/05/18 10:59:58;;;;;;;2.45;0.88;;;20.60;68.00;;;;;;5081143;28;20134;-72
2023/05/18 11:02:26;;;;;;;1.55;0.20;;;20.60;68.00;;;;;;5086422;28;20066;-72
2023/05/18 11:04:55;;;;;;;2.55;0.30;;;20.60;68.00;;;;;;5088309;28;20057;-73
2023/05/18 11:07:25;;;;;;;1.30;0.68;;;20.60;68.00;;;;;;5088753;28;20097;-73
2023/05/18 11:09:52;;;;;;;1.45;0.68;;;20.60;68.00;;;;;;5082675;28;20055;-73
2023/05/18 11:12:22;;;;;;;1.85;0.32;;;20.60;68.00;;;;;;5088004;28;20044;-72
2023/05/18 11:14:51;;;;;;;2.58;0.90;;;20.60;68.00;;;;;;5083019;28;20071;-73
2023/05/18 11:17:20;;;;;;;2.20;0.70;;;20.60;68.00;;;;;;5081034;28;20047;-72
2023/05/18 11:20:14;;;;;;;2.10;0.20;;;20.60;67.90;;;;;;5088938;28;20083;-73
2023/05/18 11:22:45;;;;;;;2.80;0.60;;;20.60;67.90;;;;;;5082519;28;20090;-73
2023/05/18 11:25:37;;;;;;;1.67;0.55;;;20.60;67.80;;;;;;5085484;28;20588;-72
2023/05/18 11:28:05;;;;;;;5.03;0.60;;;20.60;67.90;;;;;;5086434;28;20051;-72
2023/05/18 11:30:46;;;;;;;1.92;1.30;;;20.70;67.80;;;;;;5087680;28;20071;-73
2023/05/18 11:33:14;;;;;;;1.27;0.20;;;20.60;67.80;;;;;;5083458;28;21104;-72
2023/05/18 11:36:01;;;;;;;2.60;0.55;;;20.70;67.80;;;;;;5083066;28;20409;-73
2023/05/18 11:38:48;;;;;;;2.83;0.10;;;20.70;67.80;;;;;;5084168;28;20060;-73
2023/05/18 11:41:29;;;;;;;2.55;0.60;;;20.70;67.80;;;;;;5089337;28;20048;-72
2023/05/18 11:44:14;;;;;;;1.65;0.60;;;20.70;67.80;;;;;;5080069;28;20063;-73
2023/05/18 11:46:52;;;;;;;2.15;0.55;;;20.70;67.80;;;;;;5087815;28;20109;-73
2023/05/18 11:49:21;;;;;;;1.40;0.43;;;20.70;67.70;;;;;;5088883;28;20075;-73
2023/05/18 11:52:03;;;;;;;1.00;0.20;;;20.80;67.70;;;;;;5076499;28;20044;-73
2023/05/18 11:54:35;;;;;;;1.65;0.70;;;20.70;67.70;;;;;;5086796;28;20044;-73
2023/05/18 11:57:02;;;;;;;1.10;0.60;;;20.80;67.70;;;;;;5087205;28;20048;-73
2023/05/18 11:59:33;;;;;;;1.55;0.75;;;20.80;67.70;;;;;;5088701;28;20044;-73
2023/05/18 12:02:04;;;;;;;1.23;0.57;;;20.80;67.70;;;;;;5088904;28;20097;-73
2023/05/18 12:04:32;;;;;;;2.03;0.50;;;20.80;67.70;;;;;;5088123;28;20130;-73
2023/05/18 12:07:05;;;;;;;1.83;0.20;;;20.90;67.70;;;;;;5077594;28;20055;-72
2023/05/18 12:09:33;;;;;;;0.88;0.15;;;20.80;67.70;;;;;;5077963;28;20143;-73
2023/05/18 12:12:01;;;;;;;2.03;0.20;;;20.90;67.70;;;;;;5087811;28;20051;-73
2023/05/18 12:14:30;;;;;;;1.65;0.40;;;20.90;67.70;;;;;;5088556;28;20059;-73
2023/05/18 12:16:59;;;;;;;1.48;0.40;;;20.90;67.70;;;;;;5088194;28;20128;-72
2023/05/18 12:19:26;;;;;;;1.77;0.20;;;20.90;67.70;;;;;;5087706;28;20080;-72
2023/05/18 12:21:53;;;;;;;1.08;0.10;;;20.90;67.70;;;;;;5085862;28;20048;-72
2023/05/18 12:24:22;;;;;;;1.10;0.20;;;20.90;67.60;;;;;;5080569;28;20475;-73
2023/05/18 12:26:50;;;;;;;2.05;0.10;;;20.90;67.60;;;;;;5080673;28;20049;-72
2023/05/18 12:29:18;;;;;;;1.40;0.20;;;20.90;67.60;;;;;;5076872;28;20113;-73
2023/05/18 12:31:47;;;;;;;1.50;0.13;;;21.00;67.60;;;;;;5074630;28;20132;-73
2023/05/18 12:34:15;;;;;;;1.30;0.10;;;21.00;67.60;;;;;;5081158;28;20090;-72
2023/05/18 12:36:52;;;;;;;1.40;0.32;;;21.00;67.60;;;;;;5084521;28;20044;-73
2023/05/18 12:39:19;;;;;;;2.10;0.70;;;21.00;67.60;;;;;;5075553;28;20709;-72
2023/05/18 12:41:47;;;;;;;1.50;0.65;;;21.00;67.60;;;;;;5084270;28;20086;-73
2023/05/18 12:44:15;;;;;;;1.13;0.43;;;21.00;67.60;;;;;;5083487;28;20044;-73
2023/05/18 12:46:43;;;;;;;1.67;0.50;;;21.00;67.60;;;;;;5087367;28;20082;-73
2023/05/18 12:49:10;;;;;;;0.95;0.77;;;21.00;67.60;;;;;;5086915;28;20455;-72
2023/05/18 12:51:38;;;;;;;1.63;0.30;;;21.00;67.50;;;;;;5087393;28;20044;-73
2023/05/18 12:54:07;;;;;;;1.92;0.50;;;21.00;67.50;;;;;;5085661;28;20056;-73
2023/05/18 12:56:58;;;;;;;1.27;0.50;;;21.10;67.60;;;;;;5088856;28;20054;-72